Neligh, Nebraska
Current Conditions -  °F | °C
As of 10:55 PM on Sunday 21 Dec 2014 (Local Time) from KBVN Reporting Station
Haze Haze  
Wind Chill: 33°   Ceiling: 600
Heat Index: 40°   Visibility: 5mi
Dew Point: 37°   Wind: 12mph
Humidity: 90%   Direction: 170°S
Pressure: 29.53"   Gusts: 18mph
Location:  42.13°N, 98.03°W
Report Text: KBVN 220455Z AUTO 17010G16KT 5SM BR OVC006 05/03 A2953 RMK AO2 T00450030
Loading
Personal Weather Stations






























Interactive Weather Map New forecast layout! Learn more

10-Day Weather Forecast

Advertisements
Track Severe Weather on mobile